Positano Jet — IFTU — position and weather

sailwx.info

Track history (hours):
 
Tides and Currents Weather Stations Pressure Air Temp Water Temp Dewpoint Dewpoint Depression Visibility Wind Speed Wind Dir Waves Ship Positions

Positano Jet

Last reported at 2014-Sep-17 16:19 UTC. Time now 2014-Sep-18 19:45 UTC.
Position N 40°35' E 014°22'.

Length 23 m; draft 2 m.

Type: Ship. MMSI: 247160800.

Date/timePositionNaut miles runAvg speedWind from/ knotsBaromVisibWave heightAir tempDewpointWater temp
2014-Sep-17 16:19N 40°35' E 014°22'3 4.5
2014-Sep-17 15:34N 40°34' E 014°18'9 9.4
2014-Sep-17 14:33N 40°37' E 014°29'5 5.0
2014-Sep-17 13:33N 40°35' E 014°23'5 0.2
2014-Sep-16 05:32N 40°37' E 014°29'0 0.0
2014-Sep-16 04:26N 40°37' E 014°29'0 0.0
2014-Sep-16 03:32N 40°37' E 014°29'0 0.0
2014-Sep-16 02:32N 40°37' E 014°29'0 0.0
2014-Sep-16 01:33N 40°37' E 014°29'0 0.0
2014-Sep-16 00:29N 40°37' E 014°29'0 0.0
2014-Sep-15 23:33N 40°37' E 014°29'0 0.0
2014-Sep-15 22:25N 40°37' E 014°29'0 0.0
2014-Sep-15 21:32N 40°37' E 014°29'0 0.0
2014-Sep-15 20:32N 40°37' E 014°29'0 0.0
2014-Sep-15 19:32N 40°37' E 014°29'0 0.0
2014-Sep-15 18:20N 40°37' E 014°29'0 0.0
2014-Sep-15 17:31N 40°37' E 014°29'1 1.4
2014-Sep-15 16:31N 40°37' E 014°28'1010.5
2014-Sep-15 15:33N 40°34' E 014°15'6 2.9
2014-Sep-15 13:33N 40°35' E 014°22'6 5.9
2014-Sep-15 12:34N 40°34' E 014°15'6 2.7
2014-Sep-15 10:26N 40°35' E 014°22'6 6.5
2014-Sep-15 09:30N 40°33' E 014°14'9 0.5
2014-Sep-14 16:32N 40°36' E 014°26'8 8.0
2014-Sep-14 15:34N 40°34' E 014°16'11 8.6
2014-Sep-14 14:18N 40°37' E 014°29'5 7.1
2014-Sep-14 13:33N 40°35' E 014°23'7 6.9
2014-Sep-14 12:34N 40°33' E 014°15'1211.9
2014-Sep-14 11:33N 40°37' E 014°29'2 1.9
2014-Sep-14 10:33N 40°36' E 014°27'1010.2
2014-Sep-14 09:33N 40°33' E 014°14'6 0.4
2014-Sep-13 16:20N 40°35' E 014°22'4 5.7
2014-Sep-13 15:33N 40°34' E 014°17'10 9.8
2014-Sep-13 14:30N 40°37' E 014°29'6 6.2
2014-Sep-13 13:33N 40°35' E 014°22'5 4.8
2014-Sep-13 12:33N 40°34' E 014°16'1110.4
2014-Sep-13 11:32N 40°37' E 014°29'2 1.8
2014-Sep-13 10:33N 40°36' E 014°27'1010.4
2014-Sep-13 09:33N 40°33' E 014°14'1212.0
2014-Sep-13 08:33N 40°38' E 014°29'3 0.2
2014-Sep-12 16:29N 40°36' E 014°26'7 7.4
2014-Sep-12 15:33N 40°34' E 014°18'9 8.1
2014-Sep-12 14:23N 40°37' E 014°29'6 7.0
2014-Sep-12 13:33N 40°35' E 014°22'4 3.8
2014-Sep-12 12:33N 40°34' E 014°17'10 8.2
2014-Sep-12 11:23N 40°37' E 014°29'2 2.3
2014-Sep-12 10:32N 40°37' E 014°27'1010.3
2014-Sep-12 09:33N 40°33' E 014°14'10 0.6
2014-Sep-11 16:30N 40°37' E 014°27'8 8.4
2014-Sep-11 15:33N 40°34' E 014°18'9 9.3
2014-Sep-11 14:33N 40°37' E 014°29'6 5.7
2014-Sep-11 13:30N 40°35' E 014°22'5 5.3
2014-Sep-11 12:33N 40°34' E 014°16'7 3.6
2014-Sep-11 10:29N 40°35' E 014°25'8 9.1
2014-Sep-11 09:33N 40°33' E 014°14'12 0.6
2014-Sep-10 14:06N 40°37' E 014°29'5 8.7
2014-Sep-10 13:33N 40°35' E 014°24'6 6.0
2014-Sep-10 12:34N 40°34' E 014°16'9 4.5
2014-Sep-10 10:33N 40°36' E 014°28'2 0.7
2014-Sep-10 08:21N 40°38' E 014°29'6 0.3
2014-Sep-09 13:31N 40°35' E 014°22'5 5.1
2014-Sep-09 12:34N 40°34' E 014°16'1 0.0
2014-Sep-08 09:27N 40°33' E 014°14'1211.0
2014-Sep-08 08:22N 40°38' E 014°29'3 0.2
2014-Sep-07 16:28N 40°36' E 014°26'  
Track history (hours):
 
Tides and Currents Weather Stations Pressure Air Temp Water Temp Dewpoint Dewpoint Depression Visibility Wind Speed Wind Dir Waves Ship Positions

Positano Jet

Last reported at 2014-Sep-17 16:19 UTC. Time now 2014-Sep-18 19:45 UTC.
Position N 40°35' E 014°22'.

Length 23 m; draft 2 m.

Type: Ship. MMSI: 247160800.

Date/timePositionNaut miles runAvg speedWind from/ knotsBaromVisibWave heightAir tempDewpointWater temp
2014-Sep-17 16:19N 40°35' E 014°22'3 4.5
2014-Sep-17 15:34N 40°34' E 014°18'9 9.4
2014-Sep-17 14:33N 40°37' E 014°29'5 5.0
2014-Sep-17 13:33N 40°35' E 014°23'5 0.2
2014-Sep-16 05:32N 40°37' E 014°29'0 0.0
2014-Sep-16 04:26N 40°37' E 014°29'0 0.0
2014-Sep-16 03:32N 40°37' E 014°29'0 0.0
2014-Sep-16 02:32N 40°37' E 014°29'0 0.0
2014-Sep-16 01:33N 40°37' E 014°29'0 0.0
2014-Sep-16 00:29N 40°37' E 014°29'0 0.0
2014-Sep-15 23:33N 40°37' E 014°29'0 0.0
2014-Sep-15 22:25N 40°37' E 014°29'0 0.0
2014-Sep-15 21:32N 40°37' E 014°29'0 0.0
2014-Sep-15 20:32N 40°37' E 014°29'0 0.0
2014-Sep-15 19:32N 40°37' E 014°29'0 0.0
2014-Sep-15 18:20N 40°37' E 014°29'0 0.0
2014-Sep-15 17:31N 40°37' E 014°29'1 1.4
2014-Sep-15 16:31N 40°37' E 014°28'1010.5
2014-Sep-15 15:33N 40°34' E 014°15'6 2.9
2014-Sep-15 13:33N 40°35' E 014°22'6 5.9
2014-Sep-15 12:34N 40°34' E 014°15'6 2.7
2014-Sep-15 10:26N 40°35' E 014°22'6 6.5
2014-Sep-15 09:30N 40°33' E 014°14'9 0.5
2014-Sep-14 16:32N 40°36' E 014°26'8 8.0
2014-Sep-14 15:34N 40°34' E 014°16'11 8.6
2014-Sep-14 14:18N 40°37' E 014°29'5 7.1
2014-Sep-14 13:33N 40°35' E 014°23'7 6.9
2014-Sep-14 12:34N 40°33' E 014°15'1211.9
2014-Sep-14 11:33N 40°37' E 014°29'2 1.9
2014-Sep-14 10:33N 40°36' E 014°27'1010.2
2014-Sep-14 09:33N 40°33' E 014°14'6 0.4
2014-Sep-13 16:20N 40°35' E 014°22'4 5.7
2014-Sep-13 15:33N 40°34' E 014°17'10 9.8
2014-Sep-13 14:30N 40°37' E 014°29'6 6.2
2014-Sep-13 13:33N 40°35' E 014°22'5 4.8
2014-Sep-13 12:33N 40°34' E 014°16'1110.4
2014-Sep-13 11:32N 40°37' E 014°29'2 1.8
2014-Sep-13 10:33N 40°36' E 014°27'1010.4
2014-Sep-13 09:33N 40°33' E 014°14'1212.0
2014-Sep-13 08:33N 40°38' E 014°29'3 0.2
2014-Sep-12 16:29N 40°36' E 014°26'7 7.4
2014-Sep-12 15:33N 40°34' E 014°18'9 8.1
2014-Sep-12 14:23N 40°37' E 014°29'6 7.0
2014-Sep-12 13:33N 40°35' E 014°22'4 3.8
2014-Sep-12 12:33N 40°34' E 014°17'10 8.2
2014-Sep-12 11:23N 40°37' E 014°29'2 2.3
2014-Sep-12 10:32N 40°37' E 014°27'1010.3
2014-Sep-12 09:33N 40°33' E 014°14'10 0.6
2014-Sep-11 16:30N 40°37' E 014°27'8 8.4
2014-Sep-11 15:33N 40°34' E 014°18'9 9.3
2014-Sep-11 14:33N 40°37' E 014°29'6 5.7
2014-Sep-11 13:30N 40°35' E 014°22'5 5.3
2014-Sep-11 12:33N 40°34' E 014°16'7 3.6
2014-Sep-11 10:29N 40°35' E 014°25'8 9.1
2014-Sep-11 09:33N 40°33' E 014°14'12 0.6
2014-Sep-10 14:06N 40°37' E 014°29'5 8.7
2014-Sep-10 13:33N 40°35' E 014°24'6 6.0
2014-Sep-10 12:34N 40°34' E 014°16'9 4.5
2014-Sep-10 10:33N 40°36' E 014°28'2 0.7
2014-Sep-10 08:21N 40°38' E 014°29'6 0.3
2014-Sep-09 13:31N 40°35' E 014°22'5 5.1
2014-Sep-09 12:34N 40°34' E 014°16'1 0.0
2014-Sep-08 09:27N 40°33' E 014°14'1211.0
2014-Sep-08 08:22N 40°38' E 014°29'3 0.2
2014-Sep-07 16:28N 40°36' E 014°26'  

Dump ship's entire track history